Terminal Aerodrome Forecast
Issued by NWS New Orleans/Baton Rouge, LA

Home | Current Version | Previous Version | Text Only | Print | Product List | Glossary On
Versions: 1 2 3 4 5 6 7 8 9 10 11 12 13 14
000
FTUS44 KLIX 282238 AAA
TAFBTR
TAF AMD
KBTR 282238Z 2823/2918 05010G22KT 2SM TSRA BKN020CB BKN090
     FM290000 08005KT P6SM FEW030 BKN180
     FM290800 VRB03KT P6SM BKN080
     FM291600 10006KT P6SM BKN120=

USA.gov is the U.S. government's official web portal to all federal, state and local government web resources and services.